General Aviation Weather

Text Reports

Enter one or more of the following location identifiers separated by a space:

Zip Code, Four-Character ICAO or Three-Character IATA airport codes.

METAR - Aviation Routine Weather Report
YBCS - Cairns,
Updated at 8:30 AM GMT on April 19, 2015 (6:30 PM AEST):
METAR YBCS 190830Z 15011KT 9999 FEW025 SCT300 27/22 Q1012
TAF - Terminal Area Forecast
YBCS - Cairns,
Updated at 8:30 AM GMT on April 19, 2015 (6:30 PM AEST):
TAF YBCS 190539Z 1906/2006 13015KT 9999 FEW025
     FM190800 17010KT 9999 -SHRA SCT020 SCT035
     FM200000 13015KT 9999 FEW025 SCT040
      INTER 1910/1924 5000 SHRA FEW010 BKN018=
TAF AMD YSRI 190536Z 1906/2006 16014KT 9999 -SHRA SCT015 BKN030
     FM191200 20010KT 9999 -SHRA SCT010 BKN020
     FM192200 18015G25KT 9999 -SHRA SCT008 BKN015
      INTER 1906/1924 4000 SHRA BKN010
      TEMPO 2000/2006 4000 SHRA BKN008 RMK FROM 190600 MOD TURB
      BLW
      5000FT=
Decoded:
ID: YBCS   Cairns Airport, QU
REPORT TIME: 19  5:39
VALID TIME: 19 April AT 06:00Z to 20 April AT 06:00Z.
INITIAL WX
   WINDS: 130 AT 15
   CLOUDS: 25 FEW
NEW WX STARTING: 08:00Z
   WINDS: 170 AT 10
   WEATHER: -SHRA
   CLOUDS: 20 SCT
   CLOUDS: 35 SCT
NEW WX STARTING: 00:00Z
   WINDS: 130 AT 15
   CLOUDS: 25 FEW
   CLOUDS: 40 SCT
   COMMENTS: INTER 1910/1924 5000 SHRA FEW010 BKN018= 

PIREP - Pilot Weather Report
YBCS - Cairns,
Updated at 8:30 AM GMT on April 19, 2015 (6:30 PM AEST):
No PIREP is currently available for this location.
AIRMET - Airmens Meteorological Information
YBCS - Cairns,
Updated at 8:30 AM GMT on April 19, 2015 (6:30 PM AEST):
No AIRMET is currently available for this location.
SIGMET - Significant Meteorological Information
YBCS - Cairns,
Updated at 8:30 AM GMT on April 19, 2015 (6:30 PM AEST):
No SIGMET is currently available for this location.
NOTAM - Notice to Airmen
YBCS - Cairns,
Updated at 8:30 AM GMT on April 19, 2015 (6:30 PM AEST):
No NOTAM is currently available for this location.
Forecast Area
YBCS - Cairns,
Updated at 8:30 AM GMT on April 19, 2015 (6:30 PM AEST):
No NOTAM is currently available for this location.
Aviation Weather Maps